sensor_id;sensor_type;location;lat;lon;timestamp;pressure;altitude;pressure_sealevel;temperature;humidity
36304;BME280;22335;49.800;8.596;2022-10-22T00:04:30;100070.28;;;19.52;72.39
36304;BME280;22335;49.800;8.596;2022-10-22T00:11:19;100041.44;;;19.41;72.92
36304;BME280;22335;49.800;8.596;2022-10-22T00:18:04;100078.06;;;19.47;72.61
36304;BME280;22335;49.800;8.596;2022-10-22T00:24:50;100054.44;;;19.53;72.37
36304;BME280;22335;49.800;8.596;2022-10-22T00:31:38;100042.09;;;19.50;72.46
36304;BME280;22335;49.800;8.596;2022-10-22T00:38:27;100060.44;;;19.39;72.16
36304;BME280;22335;49.800;8.596;2022-10-22T00:45:19;100067.22;;;19.42;72.19
36304;BME280;22335;49.800;8.596;2022-10-22T00:52:08;100061.03;;;19.32;71.85
36304;BME280;22335;49.800;8.596;2022-10-22T00:58:58;100046.75;;;19.18;71.97
36304;BME280;22335;49.800;8.596;2022-10-22T01:05:52;100075.00;;;19.08;72.11
36304;BME280;22335;49.800;8.596;2022-10-22T01:12:48;100078.91;;;19.07;71.97
36304;BME280;22335;49.800;8.596;2022-10-22T01:19:54;100079.50;;;19.00;72.19
36304;BME280;22335;49.800;8.596;2022-10-22T01:26:59;100068.25;;;18.81;71.86
36304;BME280;22335;49.800;8.596;2022-10-22T01:33:56;100079.66;;;18.79;71.66
36304;BME280;22335;49.800;8.596;2022-10-22T01:40:44;100077.47;;;18.73;72.00
36304;BME280;22335;49.800;8.596;2022-10-22T01:47:39;100092.00;;;18.70;72.03
36304;BME280;22335;49.800;8.596;2022-10-22T01:54:40;100070.09;;;18.52;72.25
36304;BME280;22335;49.800;8.596;2022-10-22T02:01:34;100085.34;;;18.58;72.21
36304;BME280;22335;49.800;8.596;2022-10-22T02:08:27;100019.59;;;18.06;72.46
36304;BME280;22335;49.800;8.596;2022-10-22T02:15:17;100103.56;;;18.47;72.65
36304;BME280;22335;49.800;8.596;2022-10-22T02:22:04;100087.53;;;18.40;72.17
36304;BME280;22335;49.800;8.596;2022-10-22T02:28:57;100086.25;;;18.38;72.67
36304;BME280;22335;49.800;8.596;2022-10-22T02:35:49;100093.19;;;18.44;72.69
36304;BME280;22335;49.800;8.596;2022-10-22T02:42:37;100072.75;;;18.49;72.50
36304;BME280;22335;49.800;8.596;2022-10-22T03:03:14;100065.97;;;18.46;72.74
36304;BME280;22335;49.800;8.596;2022-10-22T03:09:59;100089.03;;;18.50;72.75
36304;BME280;22335;49.800;8.596;2022-10-22T03:16:45;100076.78;;;18.51;72.65
36304;BME280;22335;49.800;8.596;2022-10-22T03:23:33;100066.06;;;18.50;72.63
36304;BME280;22335;49.800;8.596;2022-10-22T03:30:19;100085.56;;;18.53;72.74
36304;BME280;22335;49.800;8.596;2022-10-22T03:37:05;100098.94;;;18.63;72.27
36304;BME280;22335;49.800;8.596;2022-10-22T03:43:54;100112.31;;;18.86;72.08
36304;BME280;22335;49.800;8.596;2022-10-22T03:50:41;100141.06;;;19.06;71.17
36304;BME280;22335;49.800;8.596;2022-10-22T03:57:27;100158.69;;;19.13;71.37
36304;BME280;22335;49.800;8.596;2022-10-22T04:04:15;100138.19;;;19.02;70.81
36304;BME280;22335;49.800;8.596;2022-10-22T04:11:01;100166.59;;;18.99;71.10
36304;BME280;22335;49.800;8.596;2022-10-22T04:17:47;100193.59;;;19.15;70.55
36304;BME280;22335;49.800;8.596;2022-10-22T04:24:35;100192.19;;;19.21;70.68
36304;BME280;22335;49.800;8.596;2022-10-22T04:31:22;100211.31;;;19.38;70.09
36304;BME280;22335;49.800;8.596;2022-10-22T04:38:08;100217.56;;;19.47;69.83
36304;BME280;22335;49.800;8.596;2022-10-22T04:44:56;100222.97;;;19.56;69.32
36304;BME280;22335;49.800;8.596;2022-10-22T04:51:43;100234.19;;;19.47;68.85
36304;BME280;22335;49.800;8.596;2022-10-22T04:58:28;100238.16;;;19.34;68.83
36304;BME280;22335;49.800;8.596;2022-10-22T05:05:16;100231.81;;;19.21;68.93
36304;BME280;22335;49.800;8.596;2022-10-22T05:12:02;100227.09;;;19.09;69.03
36304;BME280;22335;49.800;8.596;2022-10-22T05:18:48;100230.78;;;19.01;68.76
36304;BME280;22335;49.800;8.596;2022-10-22T05:25:38;100226.03;;;18.65;69.55
36304;BME280;22335;49.800;8.596;2022-10-22T05:32:23;100253.13;;;18.47;69.84
36304;BME280;22335;49.800;8.596;2022-10-22T05:39:09;100256.91;;;18.42;70.10
36304;BME280;22335;49.800;8.596;2022-10-22T05:46:00;100261.50;;;18.38;70.05
36304;BME280;22335;49.800;8.596;2022-10-22T05:52:47;100283.00;;;18.54;69.48
36304;BME280;22335;49.800;8.596;2022-10-22T05:59:32;100291.19;;;18.50;70.08
36304;BME280;22335;49.800;8.596;2022-10-22T06:06:25;100296.69;;;18.38;70.26
36304;BME280;22335;49.800;8.596;2022-10-22T06:13:12;100294.84;;;18.42;70.45
36304;BME280;22335;49.800;8.596;2022-10-22T06:19:57;100308.47;;;18.35;70.71
36304;BME280;22335;49.800;8.596;2022-10-22T06:26:48;100307.81;;;18.17;70.90
36304;BME280;22335;49.800;8.596;2022-10-22T06:33:36;100340.22;;;18.16;70.79
36304;BME280;22335;49.800;8.596;2022-10-22T06:40:24;100356.88;;;18.29;71.17
36304;BME280;22335;49.800;8.596;2022-10-22T06:47:12;100355.34;;;18.40;70.76
36304;BME280;22335;49.800;8.596;2022-10-22T06:53:58;100370.25;;;18.48;70.18
36304;BME280;22335;49.800;8.596;2022-10-22T07:00:48;100395.03;;;18.44;70.00
36304;BME280;22335;49.800;8.596;2022-10-22T07:07:36;100390.44;;;18.48;69.96
36304;BME280;22335;49.800;8.596;2022-10-22T07:14:22;100389.75;;;18.51;69.84
36304;BME280;22335;49.800;8.596;2022-10-22T07:21:08;100390.91;;;18.50;69.62
36304;BME280;22335;49.800;8.596;2022-10-22T07:27:57;100406.66;;;18.58;69.78
36304;BME280;22335;49.800;8.596;2022-10-22T07:34:43;100417.72;;;18.58;69.12
36304;BME280;22335;49.800;8.596;2022-10-22T07:41:29;100352.09;;;18.17;69.55
36304;BME280;22335;49.800;8.596;2022-10-22T07:48:17;100430.06;;;18.61;69.68
36304;BME280;22335;49.800;8.596;2022-10-22T07:55:04;100368.09;;;18.32;69.54
36304;BME280;22335;49.800;8.596;2022-10-22T08:01:50;100443.81;;;18.78;69.68
36304;BME280;22335;49.800;8.596;2022-10-22T08:08:38;100438.13;;;18.75;69.83
36304;BME280;22335;49.800;8.596;2022-10-22T08:15:24;100445.56;;;18.83;69.88
36304;BME280;22335;49.800;8.596;2022-10-22T08:22:09;100437.81;;;18.88;69.90
36304;BME280;22335;49.800;8.596;2022-10-22T08:28:57;100453.63;;;19.09;70.01
36304;BME280;22335;49.800;8.596;2022-10-22T08:35:46;100470.63;;;19.32;69.93
36304;BME280;22335;49.800;8.596;2022-10-22T08:42:48;100465.69;;;19.38;69.75
36304;BME280;22335;49.800;8.596;2022-10-22T08:49:53;100454.84;;;19.57;69.75
36304;BME280;22335;49.800;8.596;2022-10-22T08:56:43;100464.28;;;19.77;69.43
36304;BME280;22335;49.800;8.596;2022-10-22T09:03:37;100464.72;;;19.91;69.06
36304;BME280;22335;49.800;8.596;2022-10-22T09:10:32;100475.81;;;20.03;68.50
36304;BME280;22335;49.800;8.596;2022-10-22T09:17:24;100479.50;;;20.32;68.21
36304;BME280;22335;49.800;8.596;2022-10-22T09:24:30;100451.22;;;20.55;67.52
36304;BME280;22335;49.800;8.596;2022-10-22T09:31:27;100483.75;;;20.94;66.43
36304;BME280;22335;49.800;8.596;2022-10-22T09:38:18;100491.22;;;21.06;65.56
36304;BME280;22335;49.800;8.596;2022-10-22T09:45:05;100492.81;;;21.35;65.43
36304;BME280;22335;49.800;8.596;2022-10-22T09:52:01;100485.94;;;21.61;64.68
36304;BME280;22335;49.800;8.596;2022-10-22T09:58:55;100492.31;;;21.77;64.27
36304;BME280;22335;49.800;8.596;2022-10-22T10:05:42;100509.91;;;21.97;63.98
36304;BME280;22335;49.800;8.596;2022-10-22T10:12:40;100507.56;;;21.99;63.28
36304;BME280;22335;49.800;8.596;2022-10-22T10:19:40;100508.38;;;22.00;62.96
36304;BME280;22335;49.800;8.596;2022-10-22T10:26:36;100513.69;;;22.21;62.81
36304;BME280;22335;49.800;8.596;2022-10-22T10:33:35;100487.44;;;22.22;62.83
36304;BME280;22335;49.800;8.596;2022-10-22T10:40:30;100490.97;;;22.38;61.35
36304;BME280;22335;49.800;8.596;2022-10-22T10:47:41;100504.06;;;22.53;61.60
36304;BME280;22335;49.800;8.596;2022-10-22T10:54:46;100448.06;;;22.23;61.28
36304;BME280;22335;49.800;8.596;2022-10-22T11:01:43;100503.13;;;22.85;61.11
36304;BME280;22335;49.800;8.596;2022-10-22T11:08:38;100491.75;;;22.93;60.76
36304;BME280;22335;49.800;8.596;2022-10-22T11:15:31;100500.13;;;22.93;61.13
36304;BME280;22335;49.800;8.596;2022-10-22T11:22:22;100493.28;;;22.91;61.28
36304;BME280;22335;49.800;8.596;2022-10-22T11:29:12;100496.09;;;23.10;60.36
36304;BME280;22335;49.800;8.596;2022-10-22T11:36:05;100503.16;;;23.23;60.32
36304;BME280;22335;49.800;8.596;2022-10-22T11:42:53;100486.69;;;23.18;59.52
36304;BME280;22335;49.800;8.596;2022-10-22T11:49:42;100481.00;;;23.11;59.16
36304;BME280;22335;49.800;8.596;2022-10-22T11:56:39;100479.22;;;23.03;59.29
36304;BME280;22335;49.800;8.596;2022-10-22T12:03:38;100491.47;;;23.18;59.19
36304;BME280;22335;49.800;8.596;2022-10-22T12:10:26;100426.91;;;22.96;58.71
36304;BME280;22335;49.800;8.596;2022-10-22T12:17:16;100476.94;;;23.51;58.54
36304;BME280;22335;49.800;8.596;2022-10-22T12:24:02;100459.06;;;23.56;58.25
36304;BME280;22335;49.800;8.596;2022-10-22T12:30:49;100476.25;;;23.81;57.94
36304;BME280;22335;49.800;8.596;2022-10-22T12:37:37;100451.91;;;23.81;57.51
36304;BME280;22335;49.800;8.596;2022-10-22T12:44:23;100466.91;;;23.96;57.14
36304;BME280;22335;49.800;8.596;2022-10-22T12:51:14;100469.16;;;23.87;56.90
36304;BME280;22335;49.800;8.596;2022-10-22T12:58:06;100468.25;;;23.79;57.00
36304;BME280;22335;49.800;8.596;2022-10-22T13:05:13;100468.69;;;23.81;56.72
36304;BME280;22335;49.800;8.596;2022-10-22T13:12:03;100478.59;;;24.02;56.44
36304;BME280;22335;49.800;8.596;2022-10-22T13:18:53;100475.13;;;24.12;56.85
36304;BME280;22335;49.800;8.596;2022-10-22T13:25:39;100473.09;;;24.09;56.20
36304;BME280;22335;49.800;8.596;2022-10-22T13:32:27;100402.97;;;23.64;56.15
36304;BME280;22335;49.800;8.596;2022-10-22T13:39:19;100476.09;;;23.97;56.05
36304;BME280;22335;49.800;8.596;2022-10-22T13:46:08;100458.19;;;23.75;56.52
36304;BME280;22335;49.800;8.596;2022-10-22T13:52:55;100476.75;;;23.63;56.35
36304;BME280;22335;49.800;8.596;2022-10-22T13:59:44;100471.91;;;23.60;56.90
36304;BME280;22335;49.800;8.596;2022-10-22T14:06:31;100463.09;;;23.58;56.48
36304;BME280;22335;49.800;8.596;2022-10-22T14:13:36;100474.91;;;23.71;55.84
36304;BME280;22335;49.800;8.596;2022-10-22T14:20:27;100434.63;;;23.49;56.02
36304;BME280;22335;49.800;8.596;2022-10-22T14:27:14;100425.50;;;23.29;55.75
36304;BME280;22335;49.800;8.596;2022-10-22T14:33:59;100486.00;;;23.44;56.22
36304;BME280;22335;49.800;8.596;2022-10-22T14:40:47;100476.16;;;23.31;56.50
36304;BME280;22335;49.800;8.596;2022-10-22T14:47:33;100475.25;;;23.23;56.46
36304;BME280;22335;49.800;8.596;2022-10-22T14:54:19;100459.91;;;23.14;56.41
36304;BME280;22335;49.800;8.596;2022-10-22T15:01:07;100478.38;;;23.22;56.74
36304;BME280;22335;49.800;8.596;2022-10-22T15:07:53;100489.88;;;23.17;56.75
36304;BME280;22335;49.800;8.596;2022-10-22T15:14:39;100477.28;;;23.27;56.57
36304;BME280;22335;49.800;8.596;2022-10-22T15:21:27;100473.97;;;22.98;56.81
36304;BME280;22335;49.800;8.596;2022-10-22T15:28:13;100493.97;;;23.04;57.30
36304;BME280;22335;49.800;8.596;2022-10-22T15:34:59;100469.25;;;23.02;57.19
36304;BME280;22335;49.800;8.596;2022-10-22T15:41:50;100480.19;;;23.11;56.76
36304;BME280;22335;49.800;8.596;2022-10-22T15:48:35;100475.09;;;23.16;56.53
36304;BME280;22335;49.800;8.596;2022-10-22T15:55:21;100483.81;;;23.57;56.39
36304;BME280;22335;49.800;8.596;2022-10-22T16:02:09;100484.88;;;23.49;55.93
36304;BME280;22335;49.800;8.596;2022-10-22T16:08:57;100476.44;;;23.45;56.14
36304;BME280;22335;49.800;8.596;2022-10-22T16:15:43;100483.56;;;23.66;55.83
36304;BME280;22335;49.800;8.596;2022-10-22T16:22:31;100472.09;;;23.71;55.34
36304;BME280;22335;49.800;8.596;2022-10-22T16:36:05;100484.28;;;23.82;55.07
36304;BME280;22335;49.800;8.596;2022-10-22T16:42:53;100474.97;;;23.75;54.96
36304;BME280;22335;49.800;8.596;2022-10-22T16:49:39;100502.34;;;23.88;54.59
36304;BME280;22335;49.800;8.596;2022-10-22T16:56:25;100493.16;;;23.88;54.70
36304;BME280;22335;49.800;8.596;2022-10-22T17:03:13;100512.72;;;23.88;54.70
36304;BME280;22335;49.800;8.596;2022-10-22T17:09:58;100513.38;;;23.81;54.35
36304;BME280;22335;49.800;8.596;2022-10-22T17:16:45;100514.56;;;23.80;54.41
36304;BME280;22335;49.800;8.596;2022-10-22T17:23:37;100524.13;;;23.79;53.92
36304;BME280;22335;49.800;8.596;2022-10-22T17:30:23;100501.94;;;23.67;53.47
36304;BME280;22335;49.800;8.596;2022-10-22T17:43:58;100530.97;;;23.62;53.82
36304;BME280;22335;49.800;8.596;2022-10-22T17:50:47;100550.38;;;23.55;54.02
36304;BME280;22335;49.800;8.596;2022-10-22T17:57:36;100545.25;;;23.38;53.78
36304;BME280;22335;49.800;8.596;2022-10-22T18:04:24;100554.25;;;23.28;53.98
36304;BME280;22335;49.800;8.596;2022-10-22T18:11:11;100553.66;;;23.18;53.85
36304;BME280;22335;49.800;8.596;2022-10-22T18:17:58;100553.53;;;23.11;53.60
36304;BME280;22335;49.800;8.596;2022-10-22T18:24:47;100550.44;;;22.97;53.86
36304;BME280;22335;49.800;8.596;2022-10-22T18:31:34;100546.22;;;22.87;53.96
36304;BME280;22335;49.800;8.596;2022-10-22T18:38:19;100552.53;;;22.84;53.83
36304;BME280;22335;49.800;8.596;2022-10-22T18:45:08;100538.19;;;22.66;53.74
36304;BME280;22335;49.800;8.596;2022-10-22T18:51:54;100558.50;;;22.67;53.93
36304;BME280;22335;49.800;8.596;2022-10-22T18:58:41;100541.63;;;22.60;53.69
36304;BME280;22335;49.800;8.596;2022-10-22T19:05:31;100535.84;;;22.49;53.81
36304;BME280;22335;49.800;8.596;2022-10-22T19:12:16;100533.09;;;22.33;54.05
36304;BME280;22335;49.800;8.596;2022-10-22T19:19:04;100513.13;;;22.15;53.82
36304;BME280;22335;49.800;8.596;2022-10-22T19:26:01;100527.31;;;22.10;54.20
36304;BME280;22335;49.800;8.596;2022-10-22T19:32:48;100545.94;;;22.06;54.26
36304;BME280;22335;49.800;8.596;2022-10-22T19:39:33;100542.94;;;21.99;54.03
36304;BME280;22335;49.800;8.596;2022-10-22T19:46:23;100526.38;;;21.86;54.16
36304;BME280;22335;49.800;8.596;2022-10-22T19:53:09;100545.56;;;21.92;54.25
36304;BME280;22335;49.800;8.596;2022-10-22T19:59:55;100545.03;;;21.86;54.12
36304;BME280;22335;49.800;8.596;2022-10-22T20:06:43;100510.72;;;21.66;54.34
36304;BME280;22335;49.800;8.596;2022-10-22T20:13:29;100533.06;;;21.70;54.49
36304;BME280;22335;49.800;8.596;2022-10-22T20:20:14;100537.66;;;21.62;54.48
36304;BME280;22335;49.800;8.596;2022-10-22T20:27:08;100542.22;;;21.54;54.60
36304;BME280;22335;49.800;8.596;2022-10-22T20:33:55;100534.59;;;21.51;54.06
36304;BME280;22335;49.800;8.596;2022-10-22T20:40:41;100549.91;;;21.45;54.20
36304;BME280;22335;49.800;8.596;2022-10-22T20:47:29;100545.06;;;21.42;54.60
36304;BME280;22335;49.800;8.596;2022-10-22T20:54:32;100547.13;;;21.45;54.46
36304;BME280;22335;49.800;8.596;2022-10-22T21:01:21;100521.00;;;21.34;54.12
36304;BME280;22335;49.800;8.596;2022-10-22T21:08:11;100529.69;;;21.32;54.39
36304;BME280;22335;49.800;8.596;2022-10-22T21:14:58;100543.47;;;21.41;54.08
36304;BME280;22335;49.800;8.596;2022-10-22T21:21:43;100534.78;;;21.30;54.33
36304;BME280;22335;49.800;8.596;2022-10-22T21:28:32;100528.69;;;21.25;54.52
36304;BME280;22335;49.800;8.596;2022-10-22T21:35:18;100522.19;;;21.21;54.23
36304;BME280;22335;49.800;8.596;2022-10-22T21:42:05;100531.72;;;21.19;54.17
36304;BME280;22335;49.800;8.596;2022-10-22T21:48:57;100522.25;;;21.08;54.12
36304;BME280;22335;49.800;8.596;2022-10-22T21:55:44;100520.28;;;21.09;54.29
36304;BME280;22335;49.800;8.596;2022-10-22T22:02:30;100535.53;;;21.15;54.17
36304;BME280;22335;49.800;8.596;2022-10-22T22:09:18;100536.53;;;21.07;53.78
36304;BME280;22335;49.800;8.596;2022-10-22T22:16:06;100555.06;;;21.03;53.95
36304;BME280;22335;49.800;8.596;2022-10-22T22:22:53;100551.84;;;21.01;53.74
36304;BME280;22335;49.800;8.596;2022-10-22T22:29:41;100507.44;;;20.76;54.19
36304;BME280;22335;49.800;8.596;2022-10-22T22:36:30;100548.72;;;20.90;53.64
36304;BME280;22335;49.800;8.596;2022-10-22T22:43:16;100545.03;;;20.86;54.08
36304;BME280;22335;49.800;8.596;2022-10-22T22:50:06;100536.81;;;20.89;53.55
36304;BME280;22335;49.800;8.596;2022-10-22T22:56:51;100517.75;;;20.76;53.85
36304;BME280;22335;49.800;8.596;2022-10-22T23:03:37;100514.41;;;20.70;53.59
36304;BME280;22335;49.800;8.596;2022-10-22T23:10:25;100502.84;;;20.56;54.08
36304;BME280;22335;49.800;8.596;2022-10-22T23:17:10;100519.88;;;20.54;53.87
36304;BME280;22335;49.800;8.596;2022-10-22T23:23:57;100516.41;;;20.45;53.61
36304;BME280;22335;49.800;8.596;2022-10-22T23:30:47;100497.66;;;20.30;53.92
36304;BME280;22335;49.800;8.596;2022-10-22T23:37:33;100484.72;;;20.21;53.96
36304;BME280;22335;49.800;8.596;2022-10-22T23:44:19;100488.19;;;20.18;54.01
36304;BME280;22335;49.800;8.596;2022-10-22T23:51:12;100485.63;;;20.38;53.83
36304;BME280;22335;49.800;8.596;2022-10-22T23:57:59;100504.28;;;20.00;54.08
